createdAt,value
2023-03-11T00:07:01.564Z,6.90
2023-03-11T00:13:36.914Z,6.45
2023-03-11T00:32:09.124Z,7.28
2023-03-11T00:38:43.894Z,6.93
2023-03-11T00:57:16.116Z,6.82
2023-03-11T01:03:50.888Z,6.40
2023-03-11T01:22:23.895Z,6.55
2023-03-11T01:28:58.615Z,5.93
2023-03-11T01:47:38.603Z,5.68
2023-03-11T01:54:18.346Z,5.55
2023-03-11T02:12:53.465Z,5.30
2023-03-11T02:19:48.839Z,5.72
2023-03-11T02:38:27.946Z,5.47
2023-03-11T02:45:12.242Z,5.25
2023-03-11T03:03:45.859Z,5.47
2023-03-11T03:10:22.243Z,5.22
2023-03-11T03:28:54.496Z,5.45
2023-03-11T03:35:29.311Z,5.05
2023-03-11T03:54:01.321Z,5.80
2023-03-11T04:00:37.110Z,5.15
2023-03-11T04:19:09.875Z,3.92
2023-03-11T04:25:44.607Z,3.63
2023-03-11T04:44:16.731Z,3.67
2023-03-11T04:50:51.481Z,3.65
2023-03-11T05:09:23.622Z,3.47
2023-03-11T05:15:58.407Z,3.15
2023-03-11T05:34:30.950Z,3.38
2023-03-11T05:41:06.380Z,2.50
2023-03-11T05:59:41.584Z,2.83
2023-03-11T06:06:17.737Z,3.38
2023-03-11T06:24:50.153Z,3.72
2023-03-11T06:31:27.428Z,4.20
2023-03-11T06:49:59.550Z,4.25
2023-03-11T06:56:34.265Z,4.90
2023-03-11T07:15:07.275Z,6.00
2023-03-11T07:21:42.184Z,6.05
2023-03-11T07:40:14.942Z,8.00
2023-03-11T07:46:49.770Z,7.78
2023-03-11T08:05:21.760Z,7.47
2023-03-11T08:11:57.340Z,7.50
2023-03-11T08:30:29.356Z,8.82
2023-03-11T08:37:04.082Z,8.43
2023-03-11T08:55:36.988Z,9.82
2023-03-11T09:02:11.709Z,9.23
2023-03-11T09:20:44.575Z,9.90
2023-03-11T09:27:19.362Z,8.75
2023-03-11T09:46:03.405Z,9.13
2023-03-11T09:52:58.518Z,9.65
2023-03-11T10:11:56.546Z,9.52
2023-03-11T10:19:11.297Z,9.60
2023-03-11T10:38:18.282Z,9.65
2023-03-11T10:44:53.044Z,10.32
2023-03-11T11:06:06.707Z,11.10
2023-03-11T11:08:34.213Z,10.90
2023-03-11T11:11:03.155Z,10.80
2023-03-11T11:13:32.422Z,12.90
2023-03-11T11:16:03.267Z,10.90
2023-03-11T11:18:34.468Z,10.80
2023-03-11T11:21:07.624Z,10.77
2023-03-11T11:23:37.516Z,10.40
2023-03-11T11:26:25.988Z,11.13
2023-03-11T11:29:12.272Z,10.33
2023-03-11T11:31:41.565Z,11.50
2023-03-11T11:34:29.737Z,11.83
2023-03-11T11:37:02.513Z,10.90
2023-03-11T11:39:33.356Z,10.40
2023-03-11T11:42:01.451Z,11.47
2023-03-11T11:44:33.708Z,10.93
2023-03-11T11:47:37.783Z,10.60
2023-03-11T11:50:12.038Z,10.67
2023-03-11T11:52:46.108Z,11.13
2023-03-11T11:55:22.714Z,10.80
2023-03-11T11:57:51.340Z,11.33
2023-03-11T12:00:20.992Z,10.80
2023-03-11T12:03:28.245Z,10.60
2023-03-11T12:06:07.995Z,11.10
2023-03-11T12:08:54.578Z,10.90
2023-03-11T12:11:29.082Z,11.23
2023-03-11T12:14:00.480Z,10.57
2023-03-11T12:17:03.638Z,11.23
2023-03-11T12:19:45.694Z,10.97
2023-03-11T12:22:33.636Z,10.40
2023-03-11T12:25:22.442Z,10.60
2023-03-11T12:28:09.035Z,11.40
2023-03-11T12:30:38.901Z,10.70
2023-03-11T12:33:11.351Z,10.70
2023-03-11T12:35:38.056Z,10.50
2023-03-11T12:38:22.837Z,10.80
2023-03-11T12:41:12.130Z,10.80
2023-03-11T12:43:38.692Z,10.80
2023-03-11T12:46:19.394Z,11.07
2023-03-11T12:49:06.691Z,10.50
2023-03-11T12:51:34.181Z,11.20
2023-03-11T12:54:21.471Z,10.83
2023-03-11T12:56:57.081Z,10.70
2023-03-11T12:59:42.101Z,11.23
2023-03-11T13:02:36.142Z,11.03
2023-03-11T13:05:18.964Z,12.90
2023-03-11T13:08:12.405Z,11.23
2023-03-11T13:10:50.524Z,11.33
2023-03-11T13:13:30.151Z,10.70
2023-03-11T13:15:58.038Z,11.97
2023-03-11T13:18:30.440Z,10.93
2023-03-11T13:21:01.613Z,11.20
2023-03-11T13:23:40.518Z,11.27
2023-03-11T13:26:10.271Z,11.23
2023-03-11T13:29:11.042Z,11.13
2023-03-11T13:32:02.575Z,11.07
2023-03-11T13:34:50.746Z,11.13
2023-03-11T13:38:11.332Z,11.50
2023-03-11T13:40:39.297Z,11.07
2023-03-11T13:43:19.262Z,11.90
2023-03-11T13:45:57.906Z,11.70
2023-03-11T13:48:40.535Z,10.60
2023-03-11T13:51:19.582Z,10.37
2023-03-11T13:54:03.700Z,10.40
2023-03-11T13:56:43.624Z,10.30
2023-03-11T13:59:26.741Z,11.80
2023-03-11T14:01:56.573Z,10.60
2023-03-11T14:04:32.148Z,10.20
2023-03-11T14:06:59.978Z,10.10
2023-03-11T14:09:28.382Z,10.60
2023-03-11T14:12:03.115Z,10.40
2023-03-11T14:14:38.214Z,11.00
2023-03-11T14:17:09.025Z,10.50
2023-03-11T14:19:35.641Z,10.43
2023-03-11T14:22:02.256Z,10.70
2023-03-11T14:24:29.967Z,10.50
2023-03-11T14:26:59.675Z,10.43
2023-03-11T14:29:40.429Z,10.33
2023-03-11T14:32:17.848Z,10.23
2023-03-11T14:34:45.915Z,12.00
2023-03-11T14:37:36.904Z,10.30
2023-03-11T14:40:23.118Z,10.90
2023-03-11T14:42:53.758Z,10.40
2023-03-11T14:45:23.339Z,10.40
2023-03-11T14:47:49.942Z,10.97
2023-03-11T14:50:25.417Z,10.60
2023-03-11T14:52:55.414Z,10.00
2023-03-11T14:55:50.978Z,10.97
2023-03-11T14:58:31.933Z,10.30
2023-03-11T15:01:11.266Z,10.70
2023-03-11T15:03:49.403Z,10.50
2023-03-11T15:06:23.154Z,10.30
2023-03-11T15:09:06.114Z,10.50
2023-03-11T15:12:00.729Z,10.70
2023-03-11T15:14:32.706Z,10.27
2023-03-11T15:17:37.155Z,10.00
2023-03-11T15:20:24.375Z,9.90
2023-03-11T15:23:01.235Z,9.70
2023-03-11T15:25:31.565Z,10.67
2023-03-11T15:27:58.321Z,10.50
2023-03-11T15:30:31.109Z,10.20
2023-03-11T15:32:58.951Z,10.60
2023-03-11T15:35:30.840Z,10.77
2023-03-11T15:38:21.629Z,10.57
2023-03-11T15:41:11.231Z,10.20
2023-03-11T15:43:47.322Z,9.73
2023-03-11T15:46:14.302Z,10.07
2023-03-11T15:48:43.154Z,9.43
2023-03-11T15:51:20.506Z,9.80
2023-03-11T15:53:47.211Z,10.10
2023-03-11T15:56:22.563Z,9.70
2023-03-11T15:58:49.366Z,10.13
2023-03-11T16:01:16.073Z,10.50
2023-03-11T16:03:42.843Z,10.13
2023-03-11T16:06:09.500Z,12.23
2023-03-11T16:08:37.501Z,9.77
2023-03-11T16:11:04.331Z,10.40
2023-03-11T16:13:31.006Z,9.90
2023-03-11T16:15:57.721Z,10.50
2023-03-11T16:18:24.421Z,11.53
2023-03-11T16:20:53.157Z,10.43
2023-03-11T16:23:36.177Z,10.70
2023-03-11T16:26:10.869Z,10.30
2023-03-11T16:28:38.273Z,10.30
2023-03-11T16:31:05.569Z,10.53
2023-03-11T16:33:33.694Z,10.67
2023-03-11T16:36:00.413Z,10.30
2023-03-11T16:38:27.157Z,10.10
2023-03-11T16:40:59.270Z,10.50
2023-03-11T16:43:27.068Z,10.33
2023-03-11T16:45:56.438Z,11.03
2023-03-11T16:48:23.643Z,12.33
2023-03-11T16:50:50.407Z,10.53
2023-03-11T16:53:17.671Z,10.73
2023-03-11T16:55:45.698Z,10.57
2023-03-11T16:58:13.128Z,10.60
2023-03-11T17:00:41.428Z,11.53
2023-03-11T17:03:11.669Z,10.60
2023-03-11T17:05:38.495Z,10.60
2023-03-11T17:08:05.453Z,10.70
2023-03-11T17:10:39.401Z,10.53
2023-03-11T17:13:06.872Z,10.47
2023-03-11T17:15:35.233Z,11.10
2023-03-11T17:18:02.619Z,10.10
2023-03-11T17:20:29.362Z,10.00
2023-03-11T17:22:56.097Z,10.37
2023-03-11T17:25:22.919Z,12.00
2023-03-11T17:27:49.654Z,10.13
2023-03-11T17:30:24.373Z,10.30
2023-03-11T17:33:01.063Z,10.40
2023-03-11T17:35:27.773Z,11.20
2023-03-11T17:37:54.450Z,11.30
2023-03-11T17:40:21.330Z,11.10
2023-03-11T17:42:47.939Z,10.83
2023-03-11T17:45:14.612Z,10.90
2023-03-11T17:47:41.237Z,11.23
2023-03-11T17:50:08.586Z,10.90
2023-03-11T17:52:35.359Z,12.40
2023-03-11T17:55:02.024Z,10.63
2023-03-11T17:57:28.694Z,11.03
2023-03-11T17:59:55.316Z,10.80
2023-03-11T18:02:22.188Z,11.07
2023-03-11T18:04:53.789Z,10.90
2023-03-11T18:07:23.485Z,10.43
2023-03-11T18:09:53.838Z,10.93
2023-03-11T18:12:21.165Z,10.60
2023-03-11T18:14:47.826Z,10.50
2023-03-11T18:17:15.837Z,10.47
2023-03-11T18:19:44.053Z,10.40
2023-03-11T18:22:10.814Z,10.53
2023-03-11T18:24:37.478Z,10.20
2023-03-11T18:27:04.379Z,9.83
2023-03-11T18:29:31.030Z,10.27
2023-03-11T18:31:57.895Z,9.83
2023-03-11T18:34:24.551Z,10.27
2023-03-11T18:36:51.265Z,10.20
2023-03-11T18:39:18.034Z,10.03
2023-03-11T18:41:44.727Z,9.90
2023-03-11T18:44:12.417Z,10.33
2023-03-11T18:46:41.457Z,9.80
2023-03-11T18:49:11.406Z,10.30
2023-03-11T18:51:38.336Z,10.00
2023-03-11T18:54:05.741Z,10.20
2023-03-11T18:56:32.911Z,11.03
2023-03-11T18:59:00.284Z,9.90
2023-03-11T19:01:27.632Z,10.40
2023-03-11T19:03:57.788Z,9.97
2023-03-11T19:06:26.296Z,10.60
2023-03-11T19:08:53.917Z,9.67
2023-03-11T19:11:22.599Z,10.70
2023-03-11T19:13:49.477Z,9.83
2023-03-11T19:16:19.702Z,10.07
2023-03-11T19:18:46.829Z,9.50
2023-03-11T19:21:15.190Z,9.50
2023-03-11T19:23:41.914Z,9.30
2023-03-11T19:26:08.979Z,9.40
2023-03-11T19:28:35.662Z,9.10
2023-03-11T19:31:02.935Z,8.93
2023-03-11T19:33:35.341Z,8.90
2023-03-11T19:36:04.259Z,9.40
2023-03-11T19:38:31.213Z,9.57
2023-03-11T19:41:06.692Z,9.43
2023-03-11T19:43:37.795Z,9.00
2023-03-11T19:46:05.608Z,9.27
2023-03-11T19:48:32.819Z,9.37
2023-03-11T19:51:00.462Z,9.30
2023-03-11T19:53:27.823Z,9.33
2023-03-11T19:55:56.631Z,9.33
2023-03-11T19:58:29.441Z,9.27
2023-03-11T20:00:58.243Z,8.73
2023-03-11T20:03:25.695Z,9.00
2023-03-11T20:05:54.708Z,11.00
2023-03-11T20:08:22.315Z,8.93
2023-03-11T20:10:51.543Z,9.00
2023-03-11T20:13:22.323Z,8.90
2023-03-11T20:15:49.798Z,9.17
2023-03-11T20:18:17.808Z,8.63
2023-03-11T20:20:45.402Z,8.90
2023-03-11T20:23:12.872Z,8.70
2023-03-11T20:25:41.065Z,8.60
2023-03-11T20:28:08.767Z,8.93
2023-03-11T20:30:38.098Z,8.60
2023-03-11T20:33:05.188Z,8.50
2023-03-11T20:35:32.001Z,8.30
2023-03-11T20:37:59.636Z,8.40
2023-03-11T20:40:26.460Z,8.47
2023-03-11T20:42:53.294Z,8.40
2023-03-11T20:45:21.882Z,8.30
2023-03-11T20:47:50.544Z,8.27
2023-03-11T20:50:17.841Z,8.50
2023-03-11T20:52:44.729Z,8.80
2023-03-11T20:55:14.043Z,8.47
2023-03-11T20:57:41.205Z,8.20
2023-03-11T21:00:11.436Z,8.37
2023-03-11T21:02:39.824Z,7.90
2023-03-11T21:05:07.463Z,8.37
2023-03-11T21:07:34.605Z,7.87
2023-03-11T21:10:02.547Z,8.17
2023-03-11T21:12:31.197Z,8.27
2023-03-11T21:14:58.214Z,7.23
2023-03-11T21:17:25.044Z,7.17
2023-03-11T21:19:51.828Z,7.50
2023-03-11T21:22:18.653Z,7.37
2023-03-11T21:24:45.381Z,7.57
2023-03-11T21:27:12.118Z,7.30
2023-03-11T21:29:38.887Z,7.10
2023-03-11T21:32:05.975Z,7.43
2023-03-11T21:34:32.820Z,6.80
2023-03-11T21:36:59.684Z,7.07
2023-03-11T21:39:26.392Z,7.20
2023-03-11T21:41:56.047Z,7.37
2023-03-11T21:44:22.833Z,7.60
2023-03-11T21:46:49.784Z,7.33
2023-03-11T21:49:16.654Z,7.30
2023-03-11T21:51:43.293Z,6.80
2023-03-11T21:54:10.951Z,7.10
2023-03-11T21:56:37.869Z,6.93
2023-03-11T21:59:04.996Z,6.80
2023-03-11T22:01:31.839Z,6.97
2023-03-11T22:03:58.635Z,6.73
2023-03-11T22:06:25.603Z,6.80
2023-03-11T22:08:52.669Z,6.50
2023-03-11T22:11:20.474Z,6.50
2023-03-11T22:13:49.170Z,6.90
2023-03-11T22:16:16.103Z,6.60
2023-03-11T22:18:43.022Z,6.20
2023-03-11T22:21:10.880Z,6.03
2023-03-11T22:23:37.939Z,6.40
2023-03-11T22:26:04.840Z,6.27
2023-03-11T22:28:31.514Z,6.37
2023-03-11T22:30:58.216Z,6.30
2023-03-11T22:33:25.747Z,6.40
2023-03-11T22:35:57.401Z,6.13
2023-03-11T22:38:24.145Z,6.30
2023-03-11T22:40:51.013Z,5.93
2023-03-11T22:43:17.795Z,6.00
2023-03-11T22:45:45.555Z,6.70
2023-03-11T22:48:12.545Z,6.43
2023-03-11T22:50:47.269Z,6.07
2023-03-11T22:53:15.510Z,5.33
2023-03-11T22:55:44.284Z,5.87
2023-03-11T22:58:11.868Z,5.70
2023-03-11T23:00:39.110Z,6.10
2023-03-11T23:03:06.311Z,5.97
2023-03-11T23:05:40.636Z,6.17
2023-03-11T23:08:08.915Z,6.50
2023-03-11T23:10:35.839Z,6.27
2023-03-11T23:13:02.499Z,6.00
2023-03-11T23:15:30.357Z,6.37
2023-03-11T23:17:57.079Z,6.20
2023-03-11T23:20:23.772Z,6.23
2023-03-11T23:22:50.478Z,6.40
2023-03-11T23:25:17.552Z,6.03
2023-03-11T23:27:45.326Z,5.90
2023-03-11T23:30:15.205Z,5.90
2023-03-11T23:32:42.387Z,6.10
2023-03-11T23:35:09.535Z,6.40
2023-03-11T23:37:36.209Z,6.53
2023-03-11T23:40:04.875Z,6.73
2023-03-11T23:42:34.788Z,6.60
2023-03-11T23:45:01.890Z,6.20
2023-03-11T23:47:28.971Z,6.00
2023-03-11T23:49:55.693Z,6.00
2023-03-11T23:52:22.793Z,7.20
2023-03-11T23:54:49.661Z,6.23
2023-03-11T23:57:16.403Z,6.63
2023-03-11T23:59:43.117Z,6.40
